createdAt,value
2019-03-30T00:00:40.247Z,9.30
2019-03-30T00:01:40.207Z,10.20
2019-03-30T00:02:40.173Z,11.40
2019-03-30T00:03:40.134Z,11.10
2019-03-30T00:04:40.090Z,10.10
2019-03-30T00:05:40.052Z,9.30
2019-03-30T00:06:40.012Z,10.50
2019-03-30T00:07:39.969Z,11.00
2019-03-30T00:08:39.931Z,10.20
2019-03-30T00:09:39.891Z,10.10
2019-03-30T00:10:39.855Z,11.50
2019-03-30T00:11:39.810Z,11.40
2019-03-30T00:12:39.776Z,12.40
2019-03-30T00:13:39.726Z,10.60
2019-03-30T00:14:39.686Z,9.50
2019-03-30T00:15:39.649Z,10.20
2019-03-30T00:16:39.612Z,10.60
2019-03-30T00:17:39.573Z,10.90
2019-03-30T00:18:41.348Z,10.70
2019-03-30T00:19:39.509Z,9.80
2019-03-30T00:20:39.450Z,10.80
2019-03-30T00:21:39.412Z,11.40
2019-03-30T00:22:39.368Z,10.60
2019-03-30T00:23:39.330Z,11.10
2019-03-30T00:24:39.293Z,11.40
2019-03-30T00:25:39.256Z,11.30
2019-03-30T00:26:39.210Z,10.30
2019-03-30T00:27:39.172Z,10.00
2019-03-30T00:28:39.136Z,11.40
2019-03-30T00:29:39.094Z,11.80
2019-03-30T00:30:39.060Z,12.50
2019-03-30T00:31:39.013Z,10.50
2019-03-30T00:32:38.973Z,10.50
2019-03-30T00:33:38.930Z,12.70
2019-03-30T00:34:38.891Z,11.40
2019-03-30T00:35:38.853Z,11.90
2019-03-30T00:36:38.814Z,11.70
2019-03-30T00:37:38.780Z,11.90
2019-03-30T00:38:38.734Z,13.50
2019-03-30T00:39:38.697Z,9.50
2019-03-30T00:40:38.653Z,9.90
2019-03-30T00:41:38.612Z,11.10
2019-03-30T00:42:38.576Z,10.50
2019-03-30T00:43:38.579Z,10.40
2019-03-30T00:44:38.493Z,11.40
2019-03-30T00:45:38.451Z,10.60
2019-03-30T00:46:38.411Z,12.10
2019-03-30T00:47:38.375Z,10.80
2019-03-30T00:48:38.336Z,11.80
2019-03-30T00:49:48.537Z,10.80
2019-03-30T00:50:38.258Z,12.60
2019-03-30T00:51:38.215Z,11.20
2019-03-30T00:52:38.174Z,11.00
2019-03-30T00:53:38.131Z,10.40
2019-03-30T00:54:38.092Z,10.50
2019-03-30T00:55:38.058Z,10.80
2019-03-30T00:56:38.015Z,10.40
2019-03-30T00:57:37.985Z,12.40
2019-03-30T00:58:37.932Z,12.70
2019-03-30T00:59:37.894Z,10.70
2019-03-30T01:00:37.864Z,11.70
2019-03-30T01:01:37.817Z,11.10
2019-03-30T01:02:37.786Z,13.80
2019-03-30T01:03:37.735Z,10.60
2019-03-30T01:04:37.695Z,9.70
2019-03-30T01:05:37.652Z,10.90
2019-03-30T01:06:37.614Z,9.70
2019-03-30T01:07:37.575Z,11.80
2019-03-30T01:08:37.536Z,10.20
2019-03-30T01:09:37.499Z,9.60
2019-03-30T01:10:37.457Z,11.00
2019-03-30T01:11:37.424Z,9.80
2019-03-30T01:12:37.374Z,10.90
2019-03-30T01:13:37.332Z,10.50
2019-03-30T01:14:37.297Z,11.60
2019-03-30T01:15:37.257Z,12.60
2019-03-30T01:16:37.214Z,11.50
2019-03-30T01:17:37.174Z,11.00
2019-03-30T01:18:37.135Z,10.70
2019-03-30T01:19:37.095Z,10.30
2019-03-30T01:20:37.059Z,10.80
2019-03-30T01:21:37.019Z,11.90
2019-03-30T01:22:36.977Z,11.00
2019-03-30T01:23:36.939Z,10.90
2019-03-30T01:24:36.894Z,12.70
2019-03-30T01:25:36.852Z,10.90
2019-03-30T01:26:36.815Z,11.60
2019-03-30T01:27:36.774Z,10.60
2019-03-30T01:28:36.742Z,9.70
2019-03-30T01:29:36.696Z,9.90
2019-03-30T01:30:36.657Z,10.80
2019-03-30T01:31:36.617Z,10.10
2019-03-30T01:32:36.579Z,9.70
2019-03-30T01:33:36.537Z,11.20
2019-03-30T01:34:36.500Z,9.70
2019-03-30T01:35:36.491Z,10.30
2019-03-30T01:36:36.414Z,10.80
2019-03-30T01:37:36.375Z,9.90
2019-03-30T01:38:36.335Z,9.70
2019-03-30T01:39:36.297Z,11.60
2019-03-30T01:40:36.260Z,10.70
2019-03-30T01:41:36.218Z,9.30
2019-03-30T01:42:36.178Z,11.40
2019-03-30T01:43:36.139Z,9.90
2019-03-30T01:44:36.095Z,10.10
2019-03-30T01:45:36.158Z,9.90
2019-03-30T01:46:36.024Z,9.40
2019-03-30T01:47:35.979Z,9.30
2019-03-30T01:48:35.936Z,9.10
2019-03-30T01:49:35.901Z,9.60
2019-03-30T01:50:35.856Z,8.70
2019-03-30T01:51:35.814Z,13.60
2019-03-30T01:52:35.780Z,8.60
2019-03-30T01:53:35.739Z,8.90
2019-03-30T01:54:35.698Z,10.40
2019-03-30T01:55:35.665Z,10.00
2019-03-30T01:56:35.615Z,10.20
2019-03-30T01:57:35.578Z,9.90
2019-03-30T01:58:35.594Z,10.50
2019-03-30T01:59:35.495Z,10.30
2019-03-30T02:00:35.470Z,9.60
2019-03-30T02:01:35.418Z,9.30
2019-03-30T02:02:35.379Z,10.40
2019-03-30T02:03:35.336Z,11.40
2019-03-30T02:04:35.304Z,11.00
2019-03-30T02:05:35.257Z,10.50
2019-03-30T02:06:35.220Z,11.10
2019-03-30T02:07:35.180Z,9.00
2019-03-30T02:08:35.134Z,9.90
2019-03-30T02:09:35.097Z,10.40
2019-03-30T02:10:35.062Z,9.90
2019-03-30T02:11:35.014Z,11.80
2019-03-30T02:12:34.979Z,9.10
2019-03-30T02:13:34.936Z,9.60
2019-03-30T02:14:34.898Z,11.00
2019-03-30T02:15:34.859Z,9.50
2019-03-30T02:16:34.813Z,9.20
2019-03-30T02:17:34.774Z,10.70
2019-03-30T02:18:34.736Z,10.20
2019-03-30T02:19:34.701Z,9.30
2019-03-30T02:20:34.651Z,9.80
2019-03-30T02:21:34.616Z,9.50
2019-03-30T02:22:34.573Z,10.30
2019-03-30T02:23:34.533Z,10.20
2019-03-30T02:24:34.497Z,10.60
2019-03-30T02:25:34.454Z,10.10
2019-03-30T02:26:34.415Z,10.10
2019-03-30T02:27:34.376Z,9.60
2019-03-30T02:28:34.332Z,9.80
2019-03-30T02:29:34.292Z,9.60
2019-03-30T02:30:34.252Z,10.70
2019-03-30T02:31:34.213Z,9.40
2019-03-30T02:32:34.176Z,9.30
2019-03-30T02:33:34.134Z,11.30
2019-03-30T02:34:34.097Z,10.30
2019-03-30T02:35:34.055Z,10.00
2019-03-30T02:36:34.015Z,10.40
2019-03-30T02:37:33.973Z,10.30
2019-03-30T02:38:33.934Z,9.80
2019-03-30T02:39:33.899Z,10.20
2019-03-30T02:40:33.852Z,9.80
2019-03-30T02:41:33.810Z,10.50
2019-03-30T02:42:33.771Z,8.90
2019-03-30T02:43:33.726Z,9.30
2019-03-30T02:44:33.694Z,10.70
2019-03-30T02:45:33.651Z,9.70
2019-03-30T02:46:33.611Z,8.50
2019-03-30T02:47:33.574Z,9.40
2019-03-30T02:48:33.526Z,8.70
2019-03-30T02:49:33.491Z,10.20
2019-03-30T02:50:48.138Z,11.10
2019-03-30T02:51:33.409Z,10.60
2019-03-30T02:52:33.364Z,9.80
2019-03-30T02:53:33.325Z,10.50
2019-03-30T02:54:33.286Z,12.40
2019-03-30T02:55:33.243Z,10.80
2019-03-30T02:56:33.216Z,11.30
2019-03-30T02:57:33.170Z,11.10
2019-03-30T02:58:33.125Z,9.30
2019-03-30T02:59:33.087Z,9.60
2019-03-30T03:00:33.041Z,10.00
2019-03-30T03:01:33.006Z,11.20
2019-03-30T03:02:32.961Z,12.20
2019-03-30T03:03:32.924Z,11.10
2019-03-30T03:04:32.885Z,12.60
2019-03-30T03:05:32.842Z,11.60
2019-03-30T03:06:32.803Z,12.00
2019-03-30T03:07:32.759Z,13.10
2019-03-30T03:08:32.735Z,9.90
2019-03-30T03:09:32.682Z,11.00
2019-03-30T03:10:32.643Z,11.60
2019-03-30T03:11:32.604Z,10.70
2019-03-30T03:12:32.562Z,11.40
2019-03-30T03:13:32.521Z,11.10
2019-03-30T03:14:32.478Z,11.00
2019-03-30T03:15:32.437Z,11.70
2019-03-30T03:16:32.401Z,10.20
2019-03-30T03:17:32.370Z,12.00
2019-03-30T03:18:32.319Z,11.30
2019-03-30T03:19:32.287Z,11.60
2019-03-30T03:20:32.239Z,10.70
2019-03-30T03:21:32.197Z,11.70
2019-03-30T03:22:32.158Z,12.50
2019-03-30T03:23:32.118Z,11.30
2019-03-30T03:24:32.075Z,11.50
2019-03-30T03:25:32.035Z,12.10
2019-03-30T03:26:32.009Z,10.20
2019-03-30T03:27:31.952Z,12.00
2019-03-30T03:28:31.918Z,11.30
2019-03-30T03:29:31.874Z,10.70
2019-03-30T03:30:31.847Z,11.90
2019-03-30T03:44:25.008Z,11.50
2019-03-30T03:45:24.925Z,11.80
2019-03-30T03:46:24.881Z,11.50
2019-03-30T03:47:24.839Z,11.10
2019-03-30T03:48:24.795Z,14.70
2019-03-30T03:49:24.829Z,11.90
2019-03-30T03:50:24.715Z,12.80
2019-03-30T03:51:26.473Z,12.50
2019-03-30T03:52:24.639Z,13.40
2019-03-30T03:53:24.579Z,10.70
2019-03-30T03:54:24.539Z,12.80
2019-03-30T03:55:24.496Z,12.60
2019-03-30T03:56:24.521Z,11.60
2019-03-30T03:57:24.419Z,12.30
2019-03-30T03:58:24.374Z,11.00
2019-03-30T03:59:24.336Z,13.60
2019-03-30T04:00:24.287Z,11.70
2019-03-30T04:01:24.255Z,13.90
2019-03-30T04:02:24.211Z,12.70
2019-03-30T04:03:24.177Z,11.50
2019-03-30T04:04:24.127Z,15.90
2019-03-30T04:05:24.084Z,14.00
2019-03-30T04:06:24.043Z,12.70
2019-03-30T04:07:24.134Z,12.90
2019-03-30T04:08:23.964Z,14.30
2019-03-30T04:09:23.921Z,12.90
2019-03-30T04:10:23.885Z,12.70
2019-03-30T04:11:23.842Z,13.60
2019-03-30T04:12:23.799Z,11.40
2019-03-30T04:13:23.757Z,11.90
2019-03-30T04:14:23.746Z,11.90
2019-03-30T04:15:23.674Z,12.50
2019-03-30T04:16:23.638Z,12.30
2019-03-30T04:17:23.596Z,12.20
2019-03-30T04:18:23.558Z,11.50
2019-03-30T04:19:23.584Z,12.10
2019-03-30T04:20:23.476Z,12.50
2019-03-30T04:21:23.454Z,11.00
2019-03-30T04:22:23.402Z,11.20
2019-03-30T04:23:23.358Z,12.70
2019-03-30T04:24:23.328Z,11.60
2019-03-30T04:25:23.270Z,12.80
2019-03-30T04:26:23.228Z,12.30
2019-03-30T04:27:23.189Z,10.80
2019-03-30T04:28:23.151Z,11.40
2019-03-30T04:29:23.108Z,11.80
2019-03-30T04:30:23.073Z,11.50
2019-03-30T04:31:23.030Z,12.50
2019-03-30T04:32:22.984Z,11.50
2019-03-30T04:33:22.949Z,12.50
2019-03-30T04:34:22.908Z,13.10
2019-03-30T04:35:22.869Z,11.80
2019-03-30T04:36:22.825Z,12.20
2019-03-30T04:37:22.788Z,11.90
2019-03-30T04:38:22.747Z,12.70
2019-03-30T04:39:22.702Z,12.40
2019-03-30T04:40:22.664Z,13.40
2019-03-30T04:41:22.623Z,13.60
2019-03-30T04:42:22.583Z,11.00
2019-03-30T04:43:22.547Z,15.90
2019-03-30T04:44:22.497Z,13.90
2019-03-30T04:45:22.459Z,16.00
2019-03-30T04:46:22.421Z,12.40
2019-03-30T04:47:22.376Z,15.80
2019-03-30T04:48:22.344Z,13.30
2019-03-30T04:49:22.300Z,13.00
2019-03-30T04:50:22.258Z,16.50
2019-03-30T04:51:22.215Z,12.90
2019-03-30T04:52:22.181Z,11.90
2019-03-30T04:53:22.137Z,12.30
2019-03-30T04:54:22.097Z,13.90
2019-03-30T04:55:22.057Z,14.40
2019-03-30T04:56:22.012Z,12.70
2019-03-30T04:57:21.972Z,13.70
2019-03-30T04:58:21.934Z,12.70
2019-03-30T04:59:21.890Z,12.30
2019-03-30T05:00:21.856Z,14.50
2019-03-30T05:01:21.812Z,11.90
2019-03-30T05:02:21.777Z,12.70
2019-03-30T05:03:21.733Z,13.50
2019-03-30T05:04:21.689Z,14.70
2019-03-30T05:05:21.654Z,14.90
2019-03-30T05:06:21.610Z,13.70
2019-03-30T05:07:21.575Z,13.60
2019-03-30T05:08:21.526Z,13.90
2019-03-30T05:09:21.487Z,14.50
2019-03-30T05:10:21.447Z,14.50
2019-03-30T05:11:21.404Z,13.70
2019-03-30T05:12:21.531Z,13.80
2019-03-30T05:13:21.326Z,11.90
2019-03-30T05:14:21.286Z,14.40
2019-03-30T05:15:21.248Z,15.70
2019-03-30T05:16:21.202Z,13.30
2019-03-30T05:17:21.162Z,15.00
2019-03-30T05:18:21.126Z,15.70
2019-03-30T05:19:21.080Z,14.80
2019-03-30T05:20:21.045Z,15.30
2019-03-30T05:21:21.003Z,15.00
2019-03-30T05:22:20.966Z,14.70
2019-03-30T05:23:20.919Z,14.40
2019-03-30T05:24:20.884Z,15.70
2019-03-30T05:25:20.844Z,15.70
2019-03-30T05:26:20.801Z,14.40
2019-03-30T05:27:20.762Z,14.30
2019-03-30T05:28:20.717Z,15.00
2019-03-30T05:29:20.678Z,14.40
2019-03-30T05:30:20.637Z,15.90
2019-03-30T05:31:20.596Z,15.30
2019-03-30T05:32:20.562Z,14.40
2019-03-30T05:33:20.518Z,14.10
2019-03-30T05:34:29.142Z,13.90
2019-03-30T05:36:24.881Z,14.20
2019-03-30T05:37:24.817Z,15.40
2019-03-30T05:38:24.774Z,15.40
2019-03-30T05:39:24.733Z,13.30
2019-03-30T05:40:24.696Z,12.90
2019-03-30T05:41:24.649Z,13.90
2019-03-30T05:42:24.610Z,13.80
2019-03-30T05:43:24.572Z,14.70
2019-03-30T05:44:24.537Z,13.50
2019-03-30T05:45:24.487Z,14.50
2019-03-30T05:46:24.448Z,13.60
2019-03-30T05:47:24.408Z,15.10
2019-03-30T05:48:24.369Z,13.40
2019-03-30T05:49:24.331Z,14.00
2019-03-30T05:50:24.290Z,14.70
2019-03-30T05:51:24.250Z,13.30
2019-03-30T05:52:26.721Z,14.40
2019-03-30T05:53:24.166Z,14.50
2019-03-30T05:54:24.126Z,12.90
2019-03-30T05:55:24.087Z,14.10
2019-03-30T05:56:24.044Z,13.70
2019-03-30T05:57:24.011Z,14.70
2019-03-30T05:58:23.966Z,15.80
2019-03-30T05:59:23.925Z,14.80
2019-03-30T06:00:23.883Z,15.30
2019-03-30T06:01:23.851Z,14.50
2019-03-30T06:02:23.806Z,14.80
2019-03-30T06:03:23.765Z,14.20
2019-03-30T06:04:23.728Z,13.80
2019-03-30T06:05:23.683Z,15.90
2019-03-30T06:06:23.645Z,17.40
2019-03-30T06:07:23.603Z,14.10
2019-03-30T06:08:23.564Z,14.40
2019-03-30T06:09:23.527Z,51.40
2019-03-30T06:10:23.484Z,19.20
2019-03-30T06:11:23.445Z,18.00
2019-03-30T06:12:23.406Z,14.90
2019-03-30T06:13:23.361Z,16.40
2019-03-30T06:14:23.322Z,17.10
2019-03-30T06:15:23.284Z,14.00
2019-03-30T06:16:23.245Z,15.90
2019-03-30T06:17:23.199Z,15.70
2019-03-30T06:18:23.162Z,13.10
2019-03-30T06:19:23.122Z,14.50
2019-03-30T06:20:23.082Z,14.30
2019-03-30T06:21:23.046Z,14.20
2019-03-30T06:22:23.004Z,14.40
2019-03-30T06:23:22.962Z,13.90
2019-03-30T06:24:22.925Z,14.60
2019-03-30T06:25:22.881Z,14.10
2019-03-30T06:26:22.841Z,12.50
2019-03-30T06:27:22.802Z,14.00
2019-03-30T06:28:22.760Z,15.20
2019-03-30T06:29:22.726Z,14.10
2019-03-30T06:30:22.683Z,13.60
2019-03-30T06:31:22.643Z,14.10
2019-03-30T06:32:22.600Z,13.70
2019-03-30T06:33:22.566Z,13.30
2019-03-30T06:34:22.524Z,12.90
2019-03-30T06:35:22.526Z,13.50
2019-03-30T06:36:22.447Z,14.60
2019-03-30T06:37:22.402Z,18.60
2019-03-30T06:38:22.364Z,13.50
2019-03-30T06:39:22.323Z,15.20
2019-03-30T06:40:22.282Z,16.10
2019-03-30T06:41:22.249Z,16.00
2019-03-30T06:42:22.206Z,14.90
2019-03-30T06:43:22.166Z,14.90
2019-03-30T06:44:22.131Z,15.60
2019-03-30T06:45:22.088Z,14.50
2019-03-30T06:46:22.049Z,13.00
2019-03-30T06:47:22.259Z,15.90
2019-03-30T06:48:21.971Z,14.50
2019-03-30T06:49:21.928Z,15.90
2019-03-30T06:50:21.888Z,17.50
2019-03-30T06:51:21.849Z,14.30
2019-03-30T06:52:21.808Z,19.90
2019-03-30T06:53:21.775Z,14.10
2019-03-30T06:54:21.736Z,15.20
2019-03-30T06:55:21.690Z,13.80
2019-03-30T06:56:21.649Z,14.40
2019-03-30T06:57:21.616Z,15.60
2019-03-30T06:58:21.588Z,30.60
2019-03-30T06:59:21.534Z,20.30
2019-03-30T07:00:21.500Z,18.90
2019-03-30T07:01:21.453Z,18.60
2019-03-30T07:02:21.416Z,17.50
2019-03-30T07:03:21.378Z,17.20
2019-03-30T07:04:21.342Z,14.60
2019-03-30T07:05:21.295Z,15.20
2019-03-30T07:06:21.259Z,17.70
2019-03-30T07:07:21.219Z,13.60
2019-03-30T07:08:21.180Z,14.10
2019-03-30T07:09:21.146Z,15.10
2019-03-30T07:10:21.103Z,14.70
2019-03-30T07:11:21.614Z,16.90
2019-03-30T07:12:21.032Z,13.70
2019-03-30T07:13:20.983Z,14.20
2019-03-30T07:14:20.945Z,16.90
2019-03-30T07:15:20.906Z,13.40
2019-03-30T07:16:20.864Z,16.40
2019-03-30T07:17:20.832Z,17.40
2019-03-30T07:18:20.791Z,14.80
2019-03-30T07:19:20.749Z,16.00
2019-03-30T07:20:20.709Z,13.80
2019-03-30T07:21:20.682Z,14.70
2019-03-30T07:22:20.635Z,16.80
2019-03-30T07:23:20.596Z,17.00
2019-03-30T07:24:20.563Z,16.60
2019-03-30T07:25:20.515Z,15.90
2019-03-30T07:26:20.476Z,15.70
2019-03-30T07:27:20.440Z,17.00
2019-03-30T07:28:20.405Z,19.10
2019-03-30T07:29:20.366Z,20.90
2019-03-30T07:30:20.327Z,20.50
2019-03-30T07:31:20.289Z,17.30
2019-03-30T07:32:20.249Z,16.10
2019-03-30T07:33:20.208Z,16.50
2019-03-30T07:34:20.169Z,14.10
2019-03-30T07:35:20.132Z,16.10
2019-03-30T07:36:20.098Z,17.90
2019-03-30T07:37:20.052Z,14.00
2019-03-30T07:38:20.044Z,14.10
2019-03-30T07:39:19.977Z,16.60
2019-03-30T07:40:19.937Z,14.90
2019-03-30T07:41:19.908Z,14.40
2019-03-30T07:42:19.869Z,14.50
2019-03-30T07:43:19.828Z,12.60
2019-03-30T07:44:19.790Z,16.30
2019-03-30T07:45:19.748Z,15.80
2019-03-30T07:46:19.870Z,14.30
2019-03-30T07:47:19.671Z,14.60
2019-03-30T07:48:19.632Z,15.10
2019-03-30T07:49:19.599Z,14.20
2019-03-30T07:50:19.614Z,14.40
2019-03-30T07:51:19.527Z,14.50
2019-03-30T07:52:19.483Z,15.80
2019-03-30T07:53:26.220Z,13.60
2019-03-30T07:54:28.062Z,11.60
2019-03-30T07:56:23.804Z,15.80
2019-03-30T07:57:23.750Z,16.10
2019-03-30T07:58:23.713Z,14.30
2019-03-30T07:59:23.679Z,13.80
2019-03-30T08:00:24.553Z,13.30
2019-03-30T08:01:23.601Z,14.60
2019-03-30T08:02:23.561Z,14.80
2019-03-30T08:03:23.520Z,13.70
2019-03-30T08:04:23.483Z,12.70
2019-03-30T08:05:23.449Z,14.00
2019-03-30T08:06:23.412Z,13.80
2019-03-30T08:07:23.377Z,15.20
2019-03-30T08:08:23.334Z,13.00
2019-03-30T08:09:23.312Z,12.00
2019-03-30T08:10:23.262Z,12.80
2019-03-30T08:11:23.227Z,15.30
2019-03-30T08:12:23.189Z,14.70
2019-03-30T08:13:23.157Z,14.40
2019-03-30T08:14:23.110Z,13.70
2019-03-30T08:15:23.076Z,12.40
2019-03-30T08:16:23.034Z,13.50
2019-03-30T08:17:23.000Z,13.90
2019-03-30T08:18:22.963Z,13.30
2019-03-30T08:19:22.929Z,14.80
2019-03-30T08:20:22.893Z,12.60
2019-03-30T08:21:22.853Z,13.10
2019-03-30T08:22:22.814Z,14.80
2019-03-30T08:23:22.773Z,15.70
2019-03-30T08:24:22.743Z,15.20
2019-03-30T08:25:22.703Z,13.60
2019-03-30T08:26:22.663Z,14.10
2019-03-30T08:27:22.625Z,12.40
2019-03-30T08:28:22.589Z,14.70
2019-03-30T08:29:22.553Z,12.40
2019-03-30T08:30:22.520Z,14.20
2019-03-30T08:31:22.482Z,12.00
2019-03-30T08:32:22.445Z,12.40
2019-03-30T08:33:22.407Z,11.00
2019-03-30T08:34:22.369Z,13.40
2019-03-30T08:35:22.329Z,13.80
2019-03-30T08:36:22.295Z,15.40
2019-03-30T08:37:22.258Z,13.60
2019-03-30T08:38:22.222Z,14.00
2019-03-30T08:39:22.188Z,13.20
2019-03-30T08:40:22.147Z,15.00
2019-03-30T08:41:22.110Z,12.00
2019-03-30T08:42:22.073Z,12.80
2019-03-30T08:43:22.045Z,11.30
2019-03-30T08:44:22.005Z,11.60
2019-03-30T08:45:21.966Z,13.30
2019-03-30T08:46:21.926Z,11.50
2019-03-30T08:47:21.889Z,12.10
2019-03-30T08:48:21.853Z,12.00
2019-03-30T08:49:21.818Z,11.40
2019-03-30T08:50:21.784Z,12.70
2019-03-30T08:51:21.749Z,12.50
2019-03-30T08:52:21.713Z,11.10
2019-03-30T08:53:21.677Z,12.80
2019-03-30T08:54:21.635Z,11.90
2019-03-30T08:55:21.602Z,10.80
2019-03-30T08:56:21.645Z,12.80
2019-03-30T08:57:21.530Z,13.40
2019-03-30T08:58:21.489Z,11.50
2019-03-30T08:59:21.453Z,10.90
2019-03-30T09:00:21.420Z,12.80
2019-03-30T09:01:21.381Z,11.00
2019-03-30T09:02:21.346Z,13.10
2019-03-30T09:03:21.311Z,11.90
2019-03-30T09:04:21.276Z,11.80
2019-03-30T09:05:21.240Z,11.00
2019-03-30T09:06:21.199Z,12.00
2019-03-30T09:07:21.163Z,10.40
2019-03-30T09:08:21.128Z,12.80
2019-03-30T09:09:21.093Z,11.50
2019-03-30T09:10:21.057Z,11.10
2019-03-30T09:11:21.028Z,11.50
2019-03-30T09:12:20.980Z,13.50
2019-03-30T09:13:20.946Z,12.00
2019-03-30T09:14:20.911Z,13.10
2019-03-30T09:15:20.878Z,12.30
2019-03-30T09:16:20.843Z,11.80
2019-03-30T09:17:20.803Z,11.90
2019-03-30T09:18:20.767Z,11.10
2019-03-30T09:19:20.729Z,12.60
2019-03-30T09:20:20.694Z,9.80
2019-03-30T09:21:20.657Z,11.20
2019-03-30T09:22:20.625Z,9.90
2019-03-30T09:23:20.588Z,10.80
2019-03-30T09:24:20.553Z,10.30
2019-03-30T09:25:20.518Z,10.30
2019-03-30T09:26:20.479Z,10.90
2019-03-30T09:27:20.442Z,10.30
2019-03-30T09:28:20.410Z,10.80
2019-03-30T09:29:20.375Z,12.20
2019-03-30T09:30:20.336Z,10.40
2019-03-30T09:31:20.300Z,11.80
2019-03-30T09:32:20.265Z,10.70
2019-03-30T09:33:20.232Z,11.40
2019-03-30T09:34:20.251Z,9.90
2019-03-30T09:35:20.158Z,9.30
2019-03-30T09:36:20.123Z,10.60
2019-03-30T09:37:20.086Z,12.90
2019-03-30T09:38:20.047Z,12.90
2019-03-30T09:39:20.014Z,10.60
2019-03-30T09:40:19.978Z,9.20
2019-03-30T09:41:19.943Z,9.80
2019-03-30T09:42:28.563Z,10.40
2019-03-30T09:44:33.392Z,10.20
2019-03-30T09:58:25.491Z,8.10
2019-03-30T09:59:16.039Z,10.50
2019-03-30T10:00:16.002Z,10.00
2019-03-30T10:01:15.958Z,11.00
2019-03-30T10:02:15.923Z,10.50
2019-03-30T10:03:15.880Z,12.50
2019-03-30T10:04:15.836Z,12.70
2019-03-30T10:05:15.804Z,9.70
2019-03-30T10:06:15.772Z,12.30
2019-03-30T10:07:15.902Z,11.10
2019-03-30T10:08:15.686Z,12.70
2019-03-30T10:09:15.653Z,12.70
2019-03-30T10:10:15.614Z,13.50
2019-03-30T10:11:15.580Z,10.00
2019-03-30T10:12:15.543Z,9.20
2019-03-30T10:13:15.501Z,10.30
2019-03-30T10:14:15.465Z,10.30
2019-03-30T10:15:15.429Z,10.40
2019-03-30T10:16:15.978Z,11.30
2019-03-30T10:17:15.361Z,10.30
2019-03-30T10:18:15.322Z,10.60
2019-03-30T10:19:15.287Z,9.40
2019-03-30T10:20:15.252Z,12.40
2019-03-30T10:21:15.211Z,9.30
2019-03-30T10:22:15.175Z,10.40
2019-03-30T10:23:15.143Z,9.10
2019-03-30T10:24:15.109Z,9.50
2019-03-30T10:25:15.070Z,12.30
2019-03-30T10:26:15.034Z,9.70
2019-03-30T10:27:14.997Z,8.60
2019-03-30T10:28:14.966Z,8.80
2019-03-30T10:29:14.935Z,10.80
2019-03-30T10:30:14.893Z,10.70
2019-03-30T10:31:14.859Z,9.60
2019-03-30T10:32:14.826Z,9.90
2019-03-30T10:33:14.783Z,7.50
2019-03-30T10:34:14.754Z,10.70
2019-03-30T10:35:14.714Z,9.90
2019-03-30T10:36:14.676Z,9.80
2019-03-30T10:37:14.647Z,11.40
2019-03-30T10:38:14.614Z,12.00
2019-03-30T10:39:14.582Z,9.80
2019-03-30T10:40:14.539Z,11.40
2019-03-30T10:41:14.505Z,9.60
2019-03-30T10:42:14.471Z,9.20
2019-03-30T10:43:14.434Z,9.80
2019-03-30T10:44:14.400Z,9.20
2019-03-30T10:45:14.360Z,9.50
2019-03-30T10:46:14.325Z,10.30
2019-03-30T10:47:14.291Z,9.90
2019-03-30T10:48:14.253Z,9.70
2019-03-30T10:49:14.225Z,9.30
2019-03-30T10:50:14.188Z,8.10
2019-03-30T10:51:14.157Z,9.40
2019-03-30T10:52:14.127Z,7.80
2019-03-30T10:53:14.085Z,9.70
2019-03-30T10:54:14.047Z,7.80
2019-03-30T10:55:14.038Z,9.10
2019-03-30T10:56:13.983Z,8.50
2019-03-30T10:57:13.964Z,8.60
2019-03-30T10:58:13.914Z,8.50
2019-03-30T10:59:13.872Z,9.70
2019-03-30T11:00:13.834Z,9.30
2019-03-30T11:01:13.804Z,9.10
2019-03-30T11:02:13.769Z,10.30
2019-03-30T11:03:13.733Z,10.00
2019-03-30T11:04:13.703Z,8.00
2019-03-30T11:05:13.662Z,10.70
2019-03-30T11:06:13.631Z,9.40
2019-03-30T11:07:13.591Z,9.00
2019-03-30T11:08:13.556Z,9.00
2019-03-30T11:09:13.527Z,8.80
2019-03-30T11:10:13.490Z,10.20
2019-03-30T11:11:13.452Z,9.10
2019-03-30T11:12:13.416Z,9.90
2019-03-30T11:13:13.387Z,10.70
2019-03-30T11:14:13.351Z,7.40
2019-03-30T11:15:13.315Z,10.40
2019-03-30T11:16:13.289Z,9.70
2019-03-30T11:17:13.244Z,9.80
2019-03-30T11:18:13.210Z,8.70
2019-03-30T11:19:13.178Z,9.10
2019-03-30T11:20:13.141Z,11.50
2019-03-30T11:21:13.111Z,9.50
2019-03-30T11:22:13.075Z,9.20
2019-03-30T11:23:13.041Z,9.10
2019-03-30T11:24:13.007Z,9.70
2019-03-30T11:25:12.967Z,9.50
2019-03-30T11:26:12.936Z,9.50
2019-03-30T11:27:12.904Z,10.60
2019-03-30T11:28:12.869Z,9.30
2019-03-30T11:29:12.830Z,9.10
2019-03-30T11:30:21.472Z,9.10
2019-03-30T11:32:17.244Z,8.30
2019-03-30T11:33:17.183Z,11.20
2019-03-30T11:34:17.144Z,8.10
2019-03-30T11:35:17.110Z,10.40
2019-03-30T11:36:18.632Z,9.40
2019-03-30T11:37:17.041Z,9.50
2019-03-30T11:38:17.013Z,9.60
2019-03-30T11:39:16.987Z,8.80
2019-03-30T11:40:16.941Z,9.90
2019-03-30T11:41:16.971Z,8.40
2019-03-30T11:42:16.870Z,9.60
2019-03-30T11:43:16.835Z,9.20
2019-03-30T11:44:16.802Z,8.10
2019-03-30T11:45:16.842Z,9.40
2019-03-30T11:46:16.733Z,8.30
2019-03-30T11:47:16.700Z,12.50
2019-03-30T11:48:16.663Z,10.20
2019-03-30T11:49:16.631Z,9.90
2019-03-30T11:50:16.617Z,9.30
2019-03-30T11:51:25.220Z,8.20
2019-03-30T11:53:20.974Z,7.60
2019-03-30T11:54:20.925Z,7.30
2019-03-30T11:55:22.365Z,11.60
2019-03-30T11:56:20.847Z,8.70
2019-03-30T11:57:20.813Z,7.80
2019-03-30T11:58:20.776Z,8.50
2019-03-30T11:59:20.739Z,9.30
2019-03-30T12:00:20.707Z,8.90
2019-03-30T12:01:21.922Z,8.50
2019-03-30T12:02:27.874Z,9.70
2019-03-30T12:03:20.602Z,8.90
2019-03-30T12:04:20.570Z,6.70
2019-03-30T12:05:20.542Z,9.00
2019-03-30T12:06:20.508Z,8.60
2019-03-30T12:07:20.473Z,7.70
2019-03-30T12:08:20.436Z,8.10
2019-03-30T12:09:20.403Z,10.40
2019-03-30T12:10:20.365Z,8.80
2019-03-30T12:11:20.333Z,7.90
2019-03-30T12:12:20.299Z,10.20
2019-03-30T12:13:20.266Z,10.00
2019-03-30T12:14:20.234Z,7.00
2019-03-30T12:15:20.199Z,10.40
2019-03-30T12:16:20.164Z,7.30
2019-03-30T12:17:20.127Z,8.50
2019-03-30T12:18:20.095Z,7.90
2019-03-30T12:19:20.063Z,5.80
2019-03-30T12:20:20.027Z,8.10
2019-03-30T12:21:19.991Z,6.10
2019-03-30T12:22:19.958Z,6.40
2019-03-30T12:23:19.922Z,6.80
2019-03-30T12:24:19.889Z,7.00
2019-03-30T12:25:19.859Z,7.40
2019-03-30T12:26:19.828Z,7.20
2019-03-30T12:27:19.791Z,7.70
2019-03-30T12:28:19.755Z,6.10
2019-03-30T12:29:19.722Z,6.60
2019-03-30T12:30:19.685Z,8.10
2019-03-30T12:31:19.651Z,7.00
2019-03-30T12:32:19.618Z,6.90
2019-03-30T12:33:19.587Z,8.20
2019-03-30T12:34:19.556Z,7.20
2019-03-30T12:35:19.516Z,7.70
2019-03-30T12:36:19.488Z,9.00
2019-03-30T12:37:19.453Z,6.40
2019-03-30T12:38:19.420Z,7.40
2019-03-30T12:39:19.388Z,7.60
2019-03-30T12:40:19.351Z,6.20
2019-03-30T12:41:19.317Z,7.20
2019-03-30T12:42:19.280Z,7.40
2019-03-30T12:43:19.251Z,7.60
2019-03-30T12:44:19.216Z,8.70
2019-03-30T12:45:19.183Z,6.80
2019-03-30T12:46:19.147Z,6.80
2019-03-30T12:47:19.111Z,6.70
2019-03-30T12:48:19.079Z,7.80
2019-03-30T12:49:19.048Z,8.90
2019-03-30T12:50:19.018Z,6.60
2019-03-30T12:51:18.976Z,6.50
2019-03-30T12:52:18.984Z,9.00
2019-03-30T12:53:18.913Z,6.80
2019-03-30T12:54:18.881Z,8.20
2019-03-30T12:55:18.851Z,7.10
2019-03-30T12:56:18.812Z,6.40
2019-03-30T12:57:18.781Z,7.40
2019-03-30T12:58:18.741Z,6.70
2019-03-30T12:59:18.707Z,8.00
2019-03-30T13:00:18.676Z,6.20
2019-03-30T13:01:18.646Z,6.10
2019-03-30T13:02:18.613Z,6.60
2019-03-30T13:03:18.578Z,7.40
2019-03-30T13:04:18.546Z,6.20
2019-03-30T13:05:18.517Z,6.10
2019-03-30T13:06:18.474Z,6.70
2019-03-30T13:07:18.447Z,6.90
2019-03-30T13:08:18.410Z,7.00
2019-03-30T13:09:18.374Z,7.00
2019-03-30T13:10:18.340Z,8.80
2019-03-30T13:11:18.305Z,8.30
2019-03-30T13:12:18.274Z,5.40
2019-03-30T13:13:18.246Z,5.80
2019-03-30T13:14:18.216Z,7.40
2019-03-30T13:15:18.180Z,6.50
2019-03-30T13:16:18.144Z,5.90
2019-03-30T13:17:18.113Z,6.80
2019-03-30T13:18:18.074Z,7.50
2019-03-30T13:19:18.038Z,5.30
2019-03-30T13:20:18.006Z,5.40
2019-03-30T13:21:17.975Z,5.90
2019-03-30T13:22:17.948Z,5.00
2019-03-30T13:23:17.907Z,7.30
2019-03-30T13:24:17.873Z,6.10
2019-03-30T13:25:17.843Z,6.80
2019-03-30T13:26:17.814Z,6.10
2019-03-30T13:27:17.778Z,5.20
2019-03-30T13:28:17.742Z,5.60
2019-03-30T13:29:17.709Z,6.00
2019-03-30T13:30:17.673Z,4.90
2019-03-30T13:31:17.642Z,5.30